createdAt,value
2022-11-17T00:00:55.692Z,96615.78
2022-11-17T00:01:58.961Z,96619.06
2022-11-17T00:03:02.013Z,96621.09
2022-11-17T00:04:04.681Z,96632.16
2022-11-17T00:05:07.815Z,96632.16
2022-11-17T00:06:12.140Z,96630.13
2022-11-17T00:07:14.901Z,96630.84
2022-11-17T00:08:17.661Z,96631.19
2022-11-17T00:09:20.381Z,96622.88
2022-11-17T00:10:23.019Z,96629.53
2022-11-17T00:11:25.566Z,96627.97
2022-11-17T00:12:47.166Z,96632.72
2022-11-17T00:14:08.214Z,96630.72
2022-11-17T00:15:10.867Z,96643.66
2022-11-17T00:16:15.227Z,96634.19
2022-11-17T00:17:17.930Z,96637.72
2022-11-17T00:18:39.172Z,96636.31
2022-11-17T00:20:00.189Z,96641.78
2022-11-17T00:21:19.998Z,96638.91
2022-11-17T00:22:23.312Z,96629.28
2022-11-17T00:23:47.128Z,96637.50
2022-11-17T00:24:50.573Z,96621.00
2022-11-17T00:25:53.361Z,96622.41
2022-11-17T00:27:02.187Z,96626.47
2022-11-17T00:28:05.188Z,96621.81
2022-11-17T00:29:11.580Z,96633.09
2022-11-17T00:30:34.375Z,96625.50
2022-11-17T00:31:55.410Z,96637.38
2022-11-17T00:33:23.010Z,96623.63
2022-11-17T00:34:25.581Z,96625.63
2022-11-17T00:35:28.175Z,96642.00
2022-11-17T00:36:36.102Z,96640.72
2022-11-17T00:38:00.601Z,96634.31
2022-11-17T00:39:03.548Z,96628.00
2022-11-17T00:40:06.865Z,96626.47
2022-11-17T00:41:09.573Z,96627.28
2022-11-17T00:42:12.359Z,96623.03
2022-11-17T00:43:15.125Z,96629.78
2022-11-17T00:44:17.976Z,96623.03
2022-11-17T00:45:20.667Z,96616.34
2022-11-17T00:46:23.782Z,96622.53
2022-11-17T00:47:26.651Z,96621.00
2022-11-17T00:48:29.643Z,96627.28
2022-11-17T00:49:32.298Z,96623.13
2022-11-17T00:50:35.013Z,96622.44
2022-11-17T00:51:38.557Z,96625.03
2022-11-17T00:52:41.252Z,96623.72
2022-11-17T00:53:44.046Z,96629.91
2022-11-17T00:54:46.760Z,96622.44
2022-11-17T00:55:49.389Z,96617.66
2022-11-17T00:56:52.248Z,96630.72
2022-11-17T00:57:55.051Z,96625.16
2022-11-17T00:58:58.287Z,96614.94
2022-11-17T01:00:01.100Z,96618.16
2022-11-17T01:01:04.536Z,96629.53
2022-11-17T01:02:07.330Z,96617.78
2022-11-17T01:03:10.096Z,96617.78
2022-11-17T01:04:14.264Z,96611.03
2022-11-17T01:05:17.391Z,96608.16
2022-11-17T01:06:20.779Z,96613.75
2022-11-17T01:07:23.519Z,96604.25
2022-11-17T01:08:26.249Z,96606.63
2022-11-17T01:09:28.983Z,96602.59
2022-11-17T01:10:31.996Z,96600.47
2022-11-17T01:11:34.674Z,96595.81
2022-11-17T01:12:37.281Z,96603.91
2022-11-17T01:13:41.089Z,96596.91
2022-11-17T01:14:43.869Z,96598.22
2022-11-17T01:15:46.508Z,96599.16
2022-11-17T01:16:49.573Z,96598.44
2022-11-17T01:17:52.205Z,96593.56
2022-11-17T01:18:55.176Z,96590.00
2022-11-17T01:19:58.016Z,96583.94
2022-11-17T01:21:21.852Z,96585.00
2022-11-17T01:22:24.501Z,96581.56
2022-11-17T01:23:27.222Z,96581.56
2022-11-17T01:24:30.247Z,96585.63
2022-11-17T01:25:33.021Z,96572.56
2022-11-17T01:26:37.268Z,96576.00
2022-11-17T01:27:40.066Z,96585.97
2022-11-17T01:28:43.218Z,96583.12
2022-11-17T01:29:45.877Z,96578.72
2022-11-17T01:30:48.550Z,96585.38
2022-11-17T01:31:52.665Z,96580.50
2022-11-17T01:32:55.405Z,96581.81
2022-11-17T01:33:58.723Z,96581.81
2022-11-17T01:35:01.410Z,96593.56
2022-11-17T01:36:11.363Z,96586.09
2022-11-17T01:37:20.037Z,96582.53
2022-11-17T01:38:22.834Z,96595.47
2022-11-17T01:39:27.998Z,96588.72
2022-11-17T01:40:30.950Z,96585.38
2022-11-17T01:41:33.740Z,96588.84
2022-11-17T01:42:36.542Z,96585.25
2022-11-17T01:43:48.354Z,96585.38
2022-11-17T01:45:01.814Z,96590.38
2022-11-17T01:46:05.256Z,96589.56
2022-11-17T01:47:31.297Z,96590.84
2022-11-17T01:48:34.477Z,96588.94
2022-11-17T01:49:37.224Z,96592.28
2022-11-17T01:50:45.805Z,96582.28
2022-11-17T01:51:57.770Z,96588.09
2022-11-17T01:53:05.430Z,96592.63
2022-11-17T01:54:10.997Z,96600.81
2022-11-17T01:55:13.787Z,96595.72
2022-11-17T01:56:23.170Z,96599.53
2022-11-17T01:57:33.342Z,96591.31
2022-11-17T01:58:41.346Z,96596.78
2022-11-17T01:59:49.612Z,96607.56
2022-11-17T02:00:54.438Z,96609.03
2022-11-17T02:01:58.071Z,96612.22
2022-11-17T02:03:01.946Z,96620.41
2022-11-17T02:04:04.677Z,96614.84
2022-11-17T02:05:27.125Z,96612.69
2022-11-17T02:06:36.604Z,96610.66
2022-11-17T02:07:41.533Z,96610.31
2022-11-17T02:08:48.582Z,96611.75
2022-11-17T02:09:53.095Z,96606.75
2022-11-17T02:10:56.229Z,96613.53
2022-11-17T02:11:59.324Z,96608.66
2022-11-17T02:13:02.579Z,96597.97
2022-11-17T02:14:05.634Z,96604.28
2022-11-17T02:15:12.472Z,96609.59
2022-11-17T02:16:18.661Z,96610.66
2022-11-17T02:17:24.546Z,96616.13
2022-11-17T02:18:28.554Z,96607.94
2022-11-17T02:19:37.546Z,96621.00
2022-11-17T02:20:50.484Z,96610.69
2022-11-17T02:22:27.095Z,96611.38
2022-11-17T02:23:35.886Z,96609.97
2022-11-17T02:25:16.035Z,96600.94
2022-11-17T02:26:33.861Z,96600.34
2022-11-17T02:28:01.693Z,96604.63
2022-11-17T02:29:24.015Z,96596.09
2022-11-17T02:30:37.962Z,96586.09
2022-11-17T02:32:00.194Z,96591.44
2022-11-17T02:33:21.087Z,96585.72
2022-11-17T02:34:45.197Z,96590.62
2022-11-17T02:35:58.723Z,96580.41
2022-11-17T02:37:19.212Z,96582.53
2022-11-17T02:38:43.604Z,96578.75
2022-11-17T02:40:08.619Z,96575.19
2022-11-17T02:41:23.183Z,96567.47
2022-11-17T02:42:55.287Z,96576.38
2022-11-17T02:44:04.963Z,96567.12
2022-11-17T02:45:11.500Z,96578.03
2022-11-17T02:46:23.775Z,96577.19
2022-11-17T02:47:30.388Z,96573.75
2022-11-17T02:48:48.287Z,96568.78
2022-11-17T02:49:57.406Z,96574.84
2022-11-17T02:51:01.940Z,96565.81
2022-11-17T02:52:06.565Z,96574.00
2022-11-17T02:53:09.742Z,96571.28
2022-11-17T02:54:13.487Z,96573.31
2022-11-17T02:55:16.209Z,96562.97
2022-11-17T02:56:19.153Z,96572.00
2022-11-17T02:57:33.366Z,96578.06
2022-11-17T02:58:36.457Z,96571.16
2022-11-17T02:59:46.476Z,96580.66
2022-11-17T03:01:28.193Z,96576.25
2022-11-17T03:03:02.174Z,96577.31
2022-11-17T03:04:10.415Z,96571.16
2022-11-17T03:05:23.085Z,96571.03
2022-11-17T03:06:39.330Z,96569.63
2022-11-17T03:08:02.811Z,96566.03
2022-11-17T03:09:33.094Z,96553.47
2022-11-17T03:11:04.421Z,96545.41
2022-11-17T03:12:22.027Z,96558.22
2022-11-17T03:13:44.461Z,96550.28
2022-11-17T03:15:19.305Z,96545.75
2022-11-17T03:16:37.540Z,96551.22
2022-11-17T03:18:02.026Z,96542.78
2022-11-17T03:19:24.677Z,96543.84
2022-11-17T03:20:55.413Z,96539.47
2022-11-17T03:22:11.814Z,96538.84
2022-11-17T03:23:19.567Z,96537.22
2022-11-17T03:24:29.262Z,96533.53
2022-11-17T03:25:35.216Z,96534.09
2022-11-17T03:26:48.164Z,96536.00
2022-11-17T03:28:12.461Z,96527.91
2022-11-17T03:29:20.698Z,96537.16
2022-11-17T03:30:25.567Z,96537.62
2022-11-17T03:31:29.840Z,96538.91
2022-11-17T03:32:40.693Z,96542.13
2022-11-17T03:33:49.051Z,96535.25
2022-11-17T03:34:57.610Z,96538.69
2022-11-17T03:36:23.183Z,96545.16
2022-11-17T03:37:31.611Z,96547.53
2022-11-17T03:38:38.768Z,96552.97
2022-11-17T03:39:46.766Z,96552.00
2022-11-17T03:40:51.781Z,96561.34
2022-11-17T03:42:01.091Z,96569.28
2022-11-17T03:43:07.805Z,96572.34
2022-11-17T03:44:12.691Z,96571.28
2022-11-17T03:45:29.370Z,96570.44
2022-11-17T03:48:09.051Z,96574.25
2022-11-17T03:49:20.956Z,96578.87
2022-11-17T03:50:52.437Z,96587.88
2022-11-17T03:51:55.731Z,96588.50
2022-11-17T03:52:58.567Z,96581.59
2022-11-17T03:54:01.810Z,96586.34
2022-11-17T03:55:06.452Z,96598.06
2022-11-17T03:56:41.609Z,96597.22
2022-11-17T03:58:01.317Z,96605.28
2022-11-17T03:59:24.519Z,96603.88
2022-11-17T04:00:27.328Z,96605.72
2022-11-17T04:01:33.333Z,96611.66
2022-11-17T04:02:36.219Z,96612.00
2022-11-17T04:03:39.927Z,96602.88
2022-11-17T04:05:01.203Z,96609.50
2022-11-17T04:06:03.986Z,96603.91
2022-11-17T04:07:06.777Z,96607.50
2022-11-17T04:08:09.529Z,96604.44
2022-11-17T04:09:12.304Z,96603.94
2022-11-17T04:10:20.997Z,96600.66
2022-11-17T04:11:42.517Z,96606.94
2022-11-17T04:13:06.259Z,96598.41
2022-11-17T04:14:28.043Z,96596.88
2022-11-17T04:15:49.361Z,96595.69
2022-11-17T04:16:52.157Z,96595.91
2022-11-17T04:17:54.905Z,96580.13
2022-11-17T04:19:01.515Z,96587.84
2022-11-17T04:20:04.528Z,96591.53
2022-11-17T04:21:07.300Z,96590.22
2022-11-17T04:22:09.985Z,96588.09
2022-11-17T04:23:14.732Z,96598.84
2022-11-17T04:24:18.483Z,96587.13
2022-11-17T04:25:41.242Z,96596.63
2022-11-17T04:27:03.200Z,96593.75
2022-11-17T04:28:24.393Z,96591.06
2022-11-17T04:29:28.616Z,96592.34
2022-11-17T04:30:34.562Z,96601.00
2022-11-17T04:31:37.232Z,96599.47
2022-11-17T04:32:39.979Z,96591.41
2022-11-17T04:33:48.621Z,96588.81
2022-11-17T04:34:51.411Z,96592.94
2022-11-17T04:35:54.175Z,96581.22
2022-11-17T04:36:57.970Z,96583.00
2022-11-17T04:38:01.569Z,96586.31
2022-11-17T04:39:04.730Z,96584.66
2022-11-17T04:40:08.418Z,96591.66
2022-11-17T04:41:31.888Z,96590.72
2022-11-17T04:42:34.568Z,96597.59
2022-11-17T04:43:40.420Z,96602.91
2022-11-17T04:44:43.089Z,96590.34
2022-11-17T04:45:45.686Z,96594.37
2022-11-17T04:46:48.428Z,96602.91
2022-11-17T04:47:51.145Z,96602.34
2022-11-17T04:48:55.653Z,96609.56
2022-11-17T04:49:58.253Z,96612.88
2022-11-17T04:51:01.021Z,96615.97
2022-11-17T04:52:03.858Z,96614.78
2022-11-17T04:53:06.530Z,96605.19
2022-11-17T04:54:11.411Z,96609.69
2022-11-17T04:55:14.650Z,96605.06
2022-11-17T04:56:19.540Z,96603.75
2022-11-17T04:57:22.248Z,96606.50
2022-11-17T04:58:25.014Z,96607.09
2022-11-17T04:59:27.647Z,96609.47
2022-11-17T05:00:30.287Z,96607.53
2022-11-17T05:01:33.328Z,96609.44
2022-11-17T05:02:37.621Z,96612.53
2022-11-17T05:03:42.938Z,96613.62
2022-11-17T05:04:57.686Z,96622.16
2022-11-17T05:06:03.459Z,96620.94
2022-11-17T05:07:07.391Z,96617.41
2022-11-17T05:08:10.284Z,96625.22
2022-11-17T05:09:15.896Z,96619.63
2022-11-17T05:10:38.702Z,96621.53
2022-11-17T05:12:01.173Z,96625.94
2022-11-17T05:13:21.847Z,96630.41
2022-11-17T05:14:25.892Z,96627.59
2022-11-17T05:15:47.312Z,96624.00
2022-11-17T05:17:10.816Z,96624.13
2022-11-17T05:19:24.308Z,96624.97
2022-11-17T05:20:26.926Z,96621.62
2022-11-17T05:21:29.849Z,96626.88
2022-11-17T05:22:50.901Z,96625.69
2022-11-17T05:23:56.288Z,96625.94
2022-11-17T05:25:02.481Z,96629.12
2022-11-17T05:26:05.308Z,96625.78
2022-11-17T05:27:08.460Z,96627.81
2022-11-17T05:28:13.133Z,96634.22
2022-11-17T05:29:18.274Z,96633.06
2022-11-17T05:30:20.885Z,96624.72
2022-11-17T05:31:24.743Z,96633.06
2022-11-17T05:32:27.453Z,96626.41
2022-11-17T05:33:33.615Z,96619.31
2022-11-17T05:34:40.284Z,96629.12
2022-11-17T05:35:43.120Z,96619.16
2022-11-17T05:36:46.016Z,96618.81
2022-11-17T05:37:48.619Z,96615.97
2022-11-17T05:38:51.628Z,96608.38
2022-11-17T05:39:54.459Z,96615.28
2022-11-17T05:40:57.238Z,96618.00
2022-11-17T05:41:59.862Z,96621.44
2022-11-17T05:43:02.547Z,96622.84
2022-11-17T05:45:22.369Z,96623.56
2022-11-17T05:46:26.347Z,96620.59
2022-11-17T05:47:29.621Z,96634.84
2022-11-17T05:48:34.022Z,96626.53
2022-11-17T05:49:36.886Z,96627.38
2022-11-17T05:50:39.829Z,96631.41
2022-11-17T05:51:42.802Z,96626.66
2022-11-17T05:52:45.667Z,96630.22
2022-11-17T05:53:49.117Z,96625.59
2022-11-17T05:54:51.999Z,96636.62
2022-11-17T05:56:25.838Z,96634.38
2022-11-17T05:57:32.348Z,96636.75
2022-11-17T05:58:38.105Z,96627.59
2022-11-17T05:59:47.110Z,96643.75
2022-11-17T06:00:51.999Z,96646.94
2022-11-17T06:02:04.815Z,96644.69
2022-11-17T06:03:19.040Z,96644.09
2022-11-17T06:04:22.170Z,96652.63
2022-11-17T06:05:26.085Z,96653.69
2022-11-17T06:06:30.481Z,96649.91
2022-11-17T06:07:35.902Z,96652.63
2022-11-17T06:08:39.230Z,96651.22
2022-11-17T06:09:42.398Z,96651.81
2022-11-17T06:10:45.263Z,96646.34
2022-11-17T06:11:48.077Z,96654.31
2022-11-17T06:12:51.020Z,96649.69
2022-11-17T06:13:53.811Z,96643.41
2022-11-17T06:14:56.748Z,96658.09
2022-11-17T06:16:04.622Z,96644.19
2022-11-17T06:17:29.011Z,96651.09
2022-11-17T06:18:41.928Z,96645.50
2022-11-17T06:19:49.798Z,96655.09
2022-11-17T06:20:54.062Z,96645.66
2022-11-17T06:22:11.778Z,96655.09
2022-11-17T06:23:17.781Z,96654.28
2022-11-17T06:24:21.170Z,96646.69
2022-11-17T06:25:24.631Z,96649.53
2022-11-17T06:26:28.055Z,96655.00
2022-11-17T06:27:32.751Z,96651.09
2022-11-17T06:28:38.026Z,96649.78
2022-11-17T06:29:44.342Z,96648.37
2022-11-17T06:30:49.360Z,96651.09
2022-11-17T06:31:54.152Z,96647.66
2022-11-17T06:32:59.093Z,96644.94
2022-11-17T06:34:03.208Z,96653.94
2022-11-17T06:35:09.387Z,96651.22
2022-11-17T06:36:12.268Z,96650.38
2022-11-17T06:37:15.366Z,96652.03
2022-11-17T06:38:18.160Z,96643.03
2022-11-17T06:39:21.038Z,96641.59
2022-11-17T06:40:23.896Z,96645.31
2022-11-17T06:41:27.042Z,96643.03
2022-11-17T06:42:52.722Z,96646.09
2022-11-17T06:43:55.577Z,96641.25
2022-11-17T06:44:58.699Z,96651.81
2022-11-17T06:46:05.345Z,96647.31
2022-11-17T06:47:08.557Z,96649.91
2022-11-17T06:48:14.634Z,96649.53
2022-11-17T06:49:17.690Z,96656.31
2022-11-17T06:50:21.856Z,96652.88
2022-11-17T06:51:24.672Z,96660.09
2022-11-17T06:52:27.523Z,96655.22
2022-11-17T06:53:30.911Z,96673.59
2022-11-17T06:54:33.664Z,96671.00
2022-11-17T06:55:37.116Z,96668.88
2022-11-17T06:56:40.160Z,96668.72
2022-11-17T06:57:42.972Z,96672.16
2022-11-17T06:58:46.018Z,96672.63
2022-11-17T06:59:48.834Z,96675.22
2022-11-17T07:00:51.746Z,96669.09
2022-11-17T07:01:54.691Z,96675.03
2022-11-17T07:03:15.733Z,96668.38
2022-11-17T07:04:18.787Z,96675.75
2022-11-17T07:05:21.584Z,96672.91
2022-11-17T07:06:24.635Z,96673.00
2022-11-17T07:07:27.779Z,96675.16
2022-11-17T07:08:31.059Z,96671.38
2022-11-17T07:09:33.931Z,96671.13
2022-11-17T07:10:37.319Z,96667.94
2022-11-17T07:11:40.169Z,96676.47
2022-11-17T07:12:43.039Z,96668.03
2022-11-17T07:13:46.195Z,96664.59
2022-11-17T07:14:49.204Z,96665.56
2022-11-17T07:15:52.511Z,96661.19
2022-11-17T07:16:55.257Z,96659.75
2022-11-17T07:17:58.839Z,96669.38
2022-11-17T07:19:04.014Z,96657.75
2022-11-17T07:20:07.471Z,96662.75
2022-11-17T07:21:13.829Z,96665.72
2022-11-17T07:22:16.809Z,96671.19
2022-11-17T07:23:19.731Z,96677.63
2022-11-17T07:24:22.569Z,96664.09
2022-11-17T07:25:25.539Z,96662.78
2022-11-17T07:26:28.806Z,96672.53
2022-11-17T07:27:31.708Z,96670.50
2022-11-17T07:28:36.747Z,96666.56
2022-11-17T07:29:39.855Z,96670.63
2022-11-17T07:30:42.503Z,96672.75
2022-11-17T07:31:45.338Z,96670.87
2022-11-17T07:32:53.369Z,96669.56
2022-11-17T07:33:57.625Z,96673.25
2022-11-17T07:35:02.508Z,96668.72
2022-11-17T07:36:11.261Z,96673.50
2022-11-17T07:37:14.808Z,96665.28
2022-11-17T07:38:17.630Z,96670.03
2022-11-17T07:39:21.987Z,96668.72
2022-11-17T07:40:25.339Z,96676.31
2022-11-17T07:41:28.261Z,96662.06
2022-11-17T07:42:34.752Z,96673.00
2022-11-17T07:43:37.625Z,96675.38
2022-11-17T07:44:40.399Z,96675.12
2022-11-17T07:45:43.424Z,96680.59
2022-11-17T07:46:46.647Z,96676.44
2022-11-17T07:47:56.623Z,96676.44
2022-11-17T07:48:59.397Z,96690.34
2022-11-17T07:50:02.128Z,96692.34
2022-11-17T07:51:05.841Z,96689.38
2022-11-17T07:52:08.699Z,96688.31
2022-11-17T07:53:11.393Z,96687.00
2022-11-17T07:54:14.210Z,96693.06
2022-11-17T07:55:17.421Z,96684.16
2022-11-17T07:56:20.245Z,96688.91
2022-11-17T07:57:25.213Z,96683.22
2022-11-17T07:58:30.030Z,96682.59
2022-11-17T07:59:33.157Z,96673.84
2022-11-17T08:00:36.903Z,96677.16
2022-11-17T08:01:40.167Z,96685.34
2022-11-17T08:02:42.932Z,96686.19
2022-11-17T08:03:45.874Z,96686.91
2022-11-17T08:04:48.963Z,96684.28
2022-11-17T08:05:53.618Z,96686.53
2022-11-17T08:06:56.454Z,96687.38
2022-11-17T08:08:00.378Z,96679.19
2022-11-17T08:09:03.284Z,96689.62
2022-11-17T08:10:06.557Z,96682.28
2022-11-17T08:11:12.412Z,96686.16
2022-11-17T08:12:15.114Z,96688.91
2022-11-17T08:13:18.055Z,96689.84
2022-11-17T08:14:20.806Z,96685.94
2022-11-17T08:15:24.064Z,96691.84
2022-11-17T08:16:30.882Z,96694.31
2022-11-17T08:17:33.884Z,96693.63
2022-11-17T08:18:37.729Z,96690.53
2022-11-17T08:19:40.955Z,96691.25
2022-11-17T08:20:43.676Z,96692.09
2022-11-17T08:21:46.576Z,96696.34
2022-11-17T08:22:50.841Z,96693.28
2022-11-17T08:23:55.364Z,96700.53
2022-11-17T08:24:58.323Z,96689.00
2022-11-17T08:26:03.742Z,96700.66
2022-11-17T08:27:09.596Z,96697.69
2022-11-17T08:28:12.417Z,96704.56
2022-11-17T08:29:15.233Z,96698.41
2022-11-17T08:30:19.682Z,96707.91
2022-11-17T08:31:22.875Z,96712.91
2022-11-17T08:32:25.649Z,96712.16
2022-11-17T08:33:28.989Z,96710.50
2022-11-17T08:34:35.593Z,96707.41
2022-11-17T08:35:38.466Z,96707.28
2022-11-17T08:36:44.587Z,96700.50
2022-11-17T08:37:47.820Z,96710.03
2022-11-17T08:38:50.756Z,96705.50
2022-11-17T08:39:53.610Z,96709.78
2022-11-17T08:40:57.646Z,96711.31
2022-11-17T08:42:00.535Z,96714.88
2022-11-17T08:43:03.366Z,96713.69
2022-11-17T08:44:06.292Z,96716.31
2022-11-17T08:45:14.615Z,96724.75
2022-11-17T08:46:17.489Z,96715.94
2022-11-17T08:47:20.200Z,96727.69
2022-11-17T08:48:23.541Z,96725.19
2022-11-17T08:49:26.361Z,96732.06
2022-11-17T08:50:29.470Z,96728.41
2022-11-17T08:51:33.720Z,96737.81
2022-11-17T08:52:36.680Z,96727.69
2022-11-17T08:53:39.647Z,96742.56
2022-11-17T08:54:42.470Z,96743.28
2022-11-17T08:55:45.979Z,96738.41
2022-11-17T08:56:48.974Z,96741.00
2022-11-17T08:57:51.891Z,96736.88
2022-11-17T08:58:54.847Z,96735.44
2022-11-17T08:59:57.865Z,96726.03
2022-11-17T09:01:05.200Z,96731.50
2022-11-17T09:02:08.603Z,96732.69
2022-11-17T09:03:12.486Z,96722.56
2022-11-17T09:04:15.922Z,96726.75
2022-11-17T09:05:18.693Z,96724.94
2022-11-17T09:06:21.654Z,96729.38
2022-11-17T09:07:24.595Z,96731.87
2022-11-17T09:08:56.104Z,96726.91
2022-11-17T09:09:53.725Z,96739.72
2022-11-17T09:10:56.439Z,96739.84
2022-11-17T09:12:00.502Z,96743.41
2022-11-17T09:13:03.684Z,96744.81
2022-11-17T09:14:07.918Z,96748.16
2022-11-17T09:15:11.374Z,96746.84
2022-11-17T09:16:15.503Z,96742.81
2022-11-17T09:17:18.387Z,96747.69
2022-11-17T09:18:21.728Z,96743.53
2022-11-17T09:19:24.585Z,96748.16
2022-11-17T09:20:27.309Z,96747.44
2022-11-17T09:21:32.409Z,96755.31
2022-11-17T09:22:35.162Z,96746.97
2022-11-17T09:23:38.666Z,96755.31
2022-11-17T09:24:41.735Z,96755.91
2022-11-17T09:25:44.488Z,96755.53
2022-11-17T09:26:47.213Z,96756.03
2022-11-17T09:27:51.144Z,96762.44
2022-11-17T09:28:57.602Z,96756.03
2022-11-17T09:30:01.268Z,96756.84
2022-11-17T09:31:13.013Z,96760.28
2022-11-17T09:32:17.075Z,96761.50
2022-11-17T09:33:20.263Z,96761.25
2022-11-17T09:34:23.117Z,96754.84
2022-11-17T09:35:26.048Z,96752.22
2022-11-17T09:36:29.129Z,96748.91
2022-11-17T09:37:32.077Z,96753.06
2022-11-17T09:38:38.964Z,96743.69
2022-11-17T09:39:42.019Z,96744.59
2022-11-17T09:40:45.606Z,96732.50
2022-11-17T09:41:56.505Z,96738.91
2022-11-17T09:42:59.342Z,96736.63
2022-11-17T09:44:07.178Z,96738.19
2022-11-17T09:45:23.419Z,96740.31
2022-11-17T09:46:44.898Z,96734.97
2022-11-17T09:48:18.468Z,96732.47
2022-11-17T09:49:22.190Z,96726.91
2022-11-17T09:50:28.341Z,96731.87
2022-11-17T09:51:34.637Z,96736.53
2022-11-17T09:52:55.159Z,96726.91
2022-11-17T09:54:12.673Z,96723.66
2022-11-17T09:55:29.735Z,96724.41
2022-11-17T09:56:35.927Z,96735.53
2022-11-17T09:57:52.636Z,96730.94
2022-11-17T09:59:06.329Z,96721.50
2022-11-17T10:00:15.161Z,96719.47
2022-11-17T10:01:20.246Z,96720.94
2022-11-17T10:02:23.185Z,96726.41
2022-11-17T10:03:29.852Z,96720.44
2022-11-17T10:04:32.558Z,96718.31
2022-11-17T10:05:36.193Z,96726.41
2022-11-17T10:06:42.718Z,96717.34
2022-11-17T10:07:51.810Z,96729.13
2022-11-17T10:09:26.563Z,96726.50
2022-11-17T10:10:58.427Z,96721.28
2022-11-17T10:12:28.507Z,96721.47
2022-11-17T10:13:33.997Z,96717.66
2022-11-17T10:14:46.560Z,96721.44
2022-11-17T10:16:12.904Z,96725.72
2022-11-17T10:17:16.233Z,96714.88
2022-11-17T10:18:19.114Z,96719.28
2022-11-17T10:19:25.830Z,96723.94
2022-11-17T10:20:28.885Z,96717.03
2022-11-17T10:21:31.784Z,96723.22
2022-11-17T10:22:37.232Z,96716.44
2022-11-17T10:24:02.320Z,96720.81
2022-11-17T10:25:05.671Z,96713.19
2022-11-17T10:26:12.205Z,96716.25
2022-11-17T10:27:17.759Z,96713.63
2022-11-17T10:28:32.523Z,96713.38
2022-11-17T10:29:35.480Z,96713.41
2022-11-17T10:30:38.344Z,96713.94
2022-11-17T10:31:49.616Z,96719.91
2022-11-17T10:32:55.147Z,96725.63
2022-11-17T10:33:58.050Z,96719.66
2022-11-17T10:35:28.258Z,96732.59
2022-11-17T10:36:33.237Z,96719.66
2022-11-17T10:37:36.310Z,96724.13
2022-11-17T10:38:45.793Z,96721.00
2022-11-17T10:39:49.046Z,96722.91
2022-11-17T10:40:53.827Z,96728.91
2022-11-17T10:41:56.884Z,96725.22
2022-11-17T10:43:15.389Z,96729.16
2022-11-17T10:44:24.945Z,96726.81
2022-11-17T10:45:28.286Z,96723.25
2022-11-17T10:46:43.088Z,96728.91
2022-11-17T10:47:52.211Z,96728.81
2022-11-17T10:49:07.245Z,96727.97
2022-11-17T10:50:24.257Z,96736.19
2022-11-17T10:51:29.846Z,96738.59
2022-11-17T10:52:32.675Z,96737.53
2022-11-17T10:53:46.236Z,96737.44
2022-11-17T10:54:53.764Z,96731.25
2022-11-17T10:56:28.193Z,96733.28
2022-11-17T10:57:31.224Z,96741.00
2022-11-17T10:58:56.305Z,96735.53
2022-11-17T11:00:00.782Z,96734.81
2022-11-17T11:01:04.988Z,96743.62
2022-11-17T11:02:37.005Z,96736.22
2022-11-17T11:03:49.754Z,96735.84
2022-11-17T11:05:05.852Z,96740.00
2022-11-17T11:06:20.621Z,96740.00
2022-11-17T11:07:24.263Z,96731.53
2022-11-17T11:08:54.346Z,96732.34
2022-11-17T11:10:06.353Z,96730.13
2022-11-17T11:11:19.167Z,96723.00
2022-11-17T11:12:39.795Z,96719.56
2022-11-17T11:13:52.856Z,96717.63
2022-11-17T11:14:59.861Z,96721.91
2022-11-17T11:16:02.724Z,96716.53
2022-11-17T11:17:14.137Z,96714.81
2022-11-17T11:18:19.950Z,96718.59
2022-11-17T11:19:23.394Z,96716.37
2022-11-17T11:20:47.768Z,96719.22
2022-11-17T11:22:10.878Z,96711.09
2022-11-17T11:23:21.384Z,96711.53
2022-11-17T11:24:46.659Z,96718.66
2022-11-17T11:26:00.006Z,96722.41
2022-11-17T11:27:34.420Z,96715.03
2022-11-17T11:28:45.740Z,96714.41
2022-11-17T11:30:01.671Z,96715.22
2022-11-17T11:31:38.562Z,96720.00
2022-11-17T11:32:44.909Z,96729.84
2022-11-17T11:34:00.558Z,96727.94
2022-11-17T11:35:17.452Z,96728.53
2022-11-17T11:36:38.792Z,96723.03
2022-11-17T11:37:49.531Z,96728.53
2022-11-17T11:38:58.356Z,96728.53
2022-11-17T11:40:22.241Z,96732.97
2022-11-17T11:41:45.934Z,96720.38
2022-11-17T11:43:13.929Z,96726.56
2022-11-17T11:44:30.297Z,96720.12
2022-11-17T11:45:42.763Z,96712.62
2022-11-17T11:46:51.410Z,96715.44
2022-11-17T11:48:22.409Z,96717.28
2022-11-17T11:49:41.794Z,96710.97
2022-11-17T11:51:02.743Z,96710.19
2022-11-17T11:52:21.853Z,96714.44
2022-11-17T11:53:24.615Z,96716.59
2022-11-17T11:54:51.092Z,96712.53
2022-11-17T11:56:19.783Z,96708.37
2022-11-17T11:57:34.280Z,96715.97
2022-11-17T11:58:48.790Z,96720.44
2022-11-17T12:00:04.353Z,96723.87
2022-11-17T12:01:09.939Z,96717.47
2022-11-17T12:02:12.894Z,96713.94
2022-11-17T12:03:30.657Z,96721.44
2022-11-17T12:04:53.792Z,96717.38
2022-11-17T12:06:25.709Z,96725.00
2022-11-17T12:08:10.562Z,96724.41
2022-11-17T12:09:39.022Z,96725.22
2022-11-17T12:11:34.679Z,96718.41
2022-11-17T12:12:39.968Z,96729.28
2022-11-17T12:13:48.400Z,96723.19
2022-11-17T12:15:10.722Z,96728.03
2022-11-17T12:16:18.352Z,96720.12
2022-11-17T12:17:24.441Z,96720.25
2022-11-17T12:18:32.078Z,96718.84
2022-11-17T12:19:57.551Z,96717.19
2022-11-17T12:21:21.209Z,96713.22
2022-11-17T12:22:29.896Z,96703.59
2022-11-17T12:24:14.289Z,96706.44
2022-11-17T12:25:19.554Z,96711.81
2022-11-17T12:26:28.898Z,96716.09
2022-11-17T12:27:34.438Z,96725.53
2022-11-17T12:28:40.364Z,96724.31
2022-11-17T12:29:46.905Z,96727.56
2022-11-17T12:30:52.348Z,96724.91
2022-11-17T12:32:00.265Z,96725.31
2022-11-17T12:33:05.113Z,96721.25
2022-11-17T12:34:08.386Z,96720.03
2022-11-17T12:35:26.087Z,96722.69
2022-11-17T12:36:34.002Z,96724.00
2022-11-17T12:37:36.990Z,96726.34
2022-11-17T12:38:40.710Z,96727.94
2022-11-17T12:39:53.609Z,96728.78
2022-11-17T12:40:56.407Z,96726.44
2022-11-17T12:42:08.769Z,96724.72
2022-11-17T12:43:17.670Z,96729.09
2022-11-17T12:44:32.726Z,96733.25
2022-11-17T12:46:09.731Z,96733.38
2022-11-17T12:47:18.469Z,96731.94
2022-11-17T12:48:45.150Z,96727.75
2022-11-17T12:50:06.821Z,96729.88
2022-11-17T12:51:17.103Z,96721.78
2022-11-17T12:52:51.050Z,96727.47
2022-11-17T12:54:27.709Z,96726.16
2022-11-17T12:55:33.390Z,96727.56
2022-11-17T12:56:55.552Z,96726.97
2022-11-17T12:58:10.760Z,96726.06
2022-11-17T12:59:34.974Z,96726.66
2022-11-17T13:01:08.896Z,96727.06
2022-11-17T13:02:28.043Z,96727.06
2022-11-17T13:03:52.961Z,96725.84
2022-11-17T13:05:16.166Z,96725.22
2022-11-17T13:06:34.792Z,96723.63
2022-11-17T13:07:38.757Z,96722.87
2022-11-17T13:08:55.856Z,96729.59
2022-11-17T13:10:00.236Z,96731.94
2022-11-17T13:11:17.835Z,96740.28
2022-11-17T13:12:31.290Z,96746.47
2022-11-17T13:13:37.036Z,96742.59
2022-11-17T13:16:21.861Z,96743.00
2022-11-17T13:17:44.109Z,96742.41
2022-11-17T13:18:48.951Z,96732.75
2022-11-17T13:19:59.801Z,96739.34
2022-11-17T13:21:02.978Z,96734.59
2022-11-17T13:22:11.606Z,96742.91
2022-11-17T13:23:23.469Z,96741.50
2022-11-17T13:24:32.395Z,96744.94
2022-11-17T13:25:35.418Z,96746.75
2022-11-17T13:26:38.565Z,96750.31
2022-11-17T13:27:50.693Z,96757.22
2022-11-17T13:29:05.594Z,96752.84
2022-11-17T13:30:16.461Z,96761.28
2022-11-17T13:31:21.438Z,96761.09
2022-11-17T13:32:30.869Z,96762.28
2022-11-17T13:33:39.630Z,96759.47